Time;durP1;ratioP1;P1;durP2;ratioP2;P2;SDS_P1;SDS_P2;PMS_P1;PMS_P2;Temp;Humidity;BMP_temperature;BMP_pressure;BME280_temperature;BME280_humidity;BME280_pressure;Samples;Min_cycle;Max_cycle;Signal;HPM_P1;HPM_P2
2023/01/01 00:01:39;;;;;;;95.30;37.80;;;13.20;99.90;;;;;;4835710;29;20026;-76
2023/01/01 00:04:08;;;;;;;86.85;34.50;;;13.10;99.90;;;;;;4831249;29;20041;-75
2023/01/01 00:06:34;;;;;;;74.57;37.45;;;13.20;99.90;;;;;;4834955;29;20057;-75
2023/01/01 00:11:44;;;;;;;89.97;38.83;;;13.10;99.90;;;;;;4837550;29;20491;-77
2023/01/01 00:14:10;;;;;;;110.90;43.20;;;13.10;99.90;;;;;;4830778;29;20083;-76
2023/01/01 00:16:36;;;;;;;90.88;39.95;;;13.10;99.90;;;;;;4834950;29;20482;-77
2023/01/01 00:19:01;;;;;;;88.78;41.28;;;13.00;99.90;;;;;;4831641;29;20049;-76
2023/01/01 00:21:27;;;;;;;80.28;36.42;;;13.00;99.90;;;;;;4835323;29;20470;-76
2023/01/01 00:23:53;;;;;;;77.45;34.67;;;13.10;99.90;;;;;;4824209;29;20052;-76
2023/01/01 00:26:18;;;;;;;95.75;38.03;;;13.10;99.90;;;;;;4829358;29;20042;-76
2023/01/01 00:28:44;;;;;;;78.88;40.20;;;13.10;99.90;;;;;;4829758;29;20038;-76
2023/01/01 00:31:18;;;;;;;49.40;24.23;;;13.00;99.90;;;;;;4833734;29;20034;-76
2023/01/01 00:33:48;;;;;;;51.63;25.15;;;13.10;99.90;;;;;;4833118;29;20082;-76
2023/01/01 00:36:16;;;;;;;37.77;19.17;;;13.20;99.90;;;;;;4832194;29;20179;-76
2023/01/01 00:38:43;;;;;;;32.30;18.08;;;13.20;99.90;;;;;;4833197;29;20499;-76
2023/01/01 00:41:11;;;;;;;34.65;17.70;;;13.30;99.90;;;;;;4833642;29;20509;-76
2023/01/01 00:43:37;;;;;;;24.67;13.43;;;13.30;99.90;;;;;;4831842;29;20037;-76
2023/01/01 00:46:04;;;;;;;29.98;13.27;;;13.30;99.90;;;;;;4833462;29;20038;-76
2023/01/01 00:48:31;;;;;;;19.15;9.55;;;13.40;99.90;;;;;;4832504;29;20130;-75
2023/01/01 00:50:57;;;;;;;17.60;7.43;;;13.40;99.90;;;;;;4833116;29;20066;-75
2023/01/01 00:53:22;;;;;;;13.23;6.35;;;13.50;99.90;;;;;;4832146;29;20042;-75
2023/01/01 00:55:50;;;;;;;8.73;5.25;;;13.50;99.90;;;;;;4832746;29;20082;-75
2023/01/01 00:58:17;;;;;;;15.50;5.15;;;13.60;99.90;;;;;;4839078;29;20033;-75
2023/01/01 01:00:43;;;;;;;6.45;3.40;;;13.70;99.90;;;;;;4831903;29;20106;-75
2023/01/01 01:03:26;;;;;;;7.88;3.58;;;13.80;99.90;;;;;;4835713;29;20038;-75
2023/01/01 01:06:01;;;;;;;6.93;3.63;;;13.80;99.90;;;;;;4830012;29;20085;-75
2023/01/01 01:08:28;;;;;;;12.32;3.17;;;13.90;99.90;;;;;;4826614;29;20475;-76
2023/01/01 01:10:54;;;;;;;5.47;3.30;;;13.90;99.90;;;;;;4832839;29;20041;-76
2023/01/01 01:15:54;;;;;;;9.70;3.53;;;13.90;99.90;;;;;;4845256;29;20057;-76
2023/01/01 01:18:19;;;;;;;4.88;2.90;;;13.90;99.90;;;;;;4858313;29;20029;-76
2023/01/01 01:20:51;;;;;;;11.88;2.97;;;13.90;99.90;;;;;;4848232;29;20052;-76
2023/01/01 01:23:17;;;;;;;5.70;2.72;;;13.90;99.90;;;;;;4840122;29;20038;-76
2023/01/01 01:25:43;;;;;;;8.85;3.40;;;14.00;99.90;;;;;;4847274;29;20037;-76
2023/01/01 01:28:08;;;;;;;4.90;2.75;;;14.00;99.90;;;;;;4857822;29;20038;-76
2023/01/01 01:30:38;;;;;;;6.93;3.03;;;13.90;99.90;;;;;;4846010;29;20030;-76
2023/01/01 01:33:04;;;;;;;4.93;2.53;;;13.90;99.90;;;;;;4857622;29;20034;-77
2023/01/01 01:35:29;;;;;;;4.88;2.33;;;14.00;99.90;;;;;;4861444;29;20402;-77
2023/01/01 01:37:55;;;;;;;4.95;2.25;;;14.10;99.90;;;;;;4869791;29;20170;-77
2023/01/01 01:40:21;;;;;;;3.15;1.90;;;14.30;99.90;;;;;;4861689;29;20030;-75
2023/01/01 01:42:49;;;;;;;5.32;1.85;;;14.30;99.90;;;;;;4855051;29;20651;-76
2023/01/01 01:45:16;;;;;;;4.70;2.10;;;14.40;99.90;;;;;;4864534;29;20037;-75
2023/01/01 01:47:56;;;;;;;7.40;1.90;;;14.60;99.90;;;;;;4867961;29;20116;-76
2023/01/01 01:50:32;;;;;;;2.85;1.70;;;14.60;99.90;;;;;;4857781;29;20041;-76
2023/01/01 01:53:19;;;;;;;3.85;1.80;;;14.70;99.90;;;;;;4854319;29;20045;-75
2023/01/01 01:56:02;;;;;;;2.85;1.95;;;14.70;99.90;;;;;;4844172;29;20124;-76
2023/01/01 01:58:30;;;;;;;5.07;2.13;;;14.70;99.90;;;;;;4821742;29;20038;-75
2023/01/01 02:00:56;;;;;;;9.07;2.65;;;14.80;99.90;;;;;;4845867;29;20033;-76
2023/01/01 02:03:39;;;;;;;3.40;1.80;;;14.70;99.90;;;;;;4858209;29;20040;-76
2023/01/01 02:06:05;;;;;;;6.03;2.25;;;14.80;99.90;;;;;;4854942;29;20034;-75
2023/01/01 02:08:34;;;;;;;8.52;3.55;;;14.70;99.90;;;;;;4847093;29;20104;-76
2023/01/01 02:10:59;;;;;;;4.57;2.50;;;14.70;99.90;;;;;;4870237;29;20379;-77
2023/01/01 02:13:25;;;;;;;4.50;2.60;;;14.80;99.90;;;;;;4857559;29;20062;-76
2023/01/01 02:16:12;;;;;;;5.47;3.50;;;14.80;99.90;;;;;;4854785;29;20506;-76
2023/01/01 02:18:56;;;;;;;7.00;3.10;;;14.80;99.90;;;;;;4853102;29;20037;-76
2023/01/01 02:21:55;;;;;;;6.75;3.50;;;14.80;99.90;;;;;;4860497;29;20048;-76
2023/01/01 02:24:52;;;;;;;7.18;3.00;;;14.90;99.90;;;;;;4845770;29;20508;-76
2023/01/01 02:27:51;;;;;;;5.97;3.55;;;14.80;99.90;;;;;;4857321;29;20578;-76
2023/01/01 02:30:17;;;;;;;5.85;3.40;;;14.90;99.90;;;;;;4839318;29;20498;-76
2023/01/01 02:32:50;;;;;;;7.68;2.65;;;14.80;99.90;;;;;;4857544;29;20495;-76
2023/01/01 02:35:35;;;;;;;6.65;3.03;;;14.80;99.90;;;;;;4858216;29;20041;-75
2023/01/01 02:38:18;;;;;;;4.75;3.00;;;14.80;99.90;;;;;;4868630;29;20037;-75
2023/01/01 02:40:51;;;;;;;10.02;3.55;;;14.70;99.90;;;;;;4852112;29;20041;-76
2023/01/01 02:43:17;;;;;;;9.38;2.55;;;14.70;99.90;;;;;;4834859;29;20069;-76
2023/01/01 02:45:43;;;;;;;7.15;3.30;;;14.70;99.90;;;;;;4846002;29;20068;-76
2023/01/01 02:48:43;;;;;;;10.57;3.70;;;14.70;99.90;;;;;;4856892;29;20060;-76
2023/01/01 02:51:47;;;;;;;8.88;2.58;;;14.70;99.90;;;;;;4864830;29;20038;-76
2023/01/01 02:54:16;;;;;;;8.30;3.35;;;14.70;99.90;;;;;;4846657;29;20049;-76
2023/01/01 02:57:11;;;;;;;4.43;2.50;;;14.70;99.90;;;;;;4867531;29;20498;-76
2023/01/01 03:00:28;;;;;;;6.40;2.30;;;14.60;99.90;;;;;;4857256;29;20045;-76
2023/01/01 03:03:28;;;;;;;8.18;3.08;;;14.60;99.90;;;;;;4867691;29;20039;-76
2023/01/01 03:06:27;;;;;;;6.10;3.42;;;14.50;99.90;;;;;;4848161;29;20056;-76
2023/01/01 03:09:08;;;;;;;6.10;2.28;;;14.40;99.90;;;;;;4870708;29;20398;-76
2023/01/01 03:11:51;;;;;;;5.88;2.55;;;14.40;99.90;;;;;;4853214;29;20501;-75
2023/01/01 03:14:41;;;;;;;5.90;2.58;;;14.50;99.90;;;;;;4868697;29;20049;-76
2023/01/01 03:17:20;;;;;;;8.98;2.97;;;14.30;99.90;;;;;;4850921;29;20052;-76
2023/01/01 03:19:48;;;;;;;5.10;2.60;;;14.30;99.90;;;;;;4859819;29;20408;-76
2023/01/01 03:22:17;;;;;;;7.78;2.47;;;14.30;99.90;;;;;;4867490;29;20021;-76
2023/01/01 03:25:11;;;;;;;7.43;3.40;;;14.10;99.90;;;;;;4858599;29;20033;-76
2023/01/01 03:28:00;;;;;;;6.88;2.78;;;14.10;99.90;;;;;;4839856;29;20065;-76
2023/01/01 03:30:29;;;;;;;6.35;2.35;;;14.10;99.90;;;;;;4859608;29;20045;-75
2023/01/01 03:33:09;;;;;;;7.55;3.28;;;13.90;99.90;;;;;;4871947;29;20037;-75
2023/01/01 03:35:43;;;;;;;6.97;3.23;;;13.70;99.90;;;;;;4862308;29;20034;-76
2023/01/01 03:38:43;;;;;;;6.07;2.92;;;13.40;99.90;;;;;;4873722;29;20323;-75
2023/01/01 03:41:33;;;;;;;9.18;3.85;;;13.20;99.90;;;;;;4848673;29;20053;-75
2023/01/01 03:44:17;;;;;;;7.57;3.55;;;13.00;99.90;;;;;;4848577;29;20038;-75
2023/01/01 03:46:43;;;;;;;10.27;3.95;;;12.90;99.90;;;;;;4852564;29;20041;-75
2023/01/01 03:49:11;;;;;;;9.70;3.65;;;12.80;99.90;;;;;;4856789;29;20045;-75
2023/01/01 03:52:18;;;;;;;8.82;4.38;;;12.60;99.90;;;;;;4866605;29;20105;-76
2023/01/01 03:55:05;;;;;;;6.25;3.22;;;12.50;99.90;;;;;;4856612;29;20545;-75
2023/01/01 03:58:02;;;;;;;6.97;4.10;;;12.40;99.90;;;;;;4863549;29;20071;-76
2023/01/01 04:00:34;;;;;;;9.30;4.00;;;12.40;99.90;;;;;;4851582;29;20566;-75
2023/01/01 04:03:20;;;;;;;8.50;3.92;;;12.30;99.90;;;;;;4871485;29;20037;-75
2023/01/01 04:05:46;;;;;;;8.38;4.15;;;12.30;99.90;;;;;;4859519;29;20049;-76
2023/01/01 04:08:14;;;;;;;9.20;4.07;;;12.20;99.90;;;;;;4873494;29;20448;-75
2023/01/01 04:10:52;;;;;;;7.72;3.72;;;12.30;99.90;;;;;;4862588;29;20467;-76
2023/01/01 04:13:17;;;;;;;8.75;3.88;;;12.30;99.90;;;;;;4852118;29;20106;-76
2023/01/01 04:15:43;;;;;;;7.43;3.33;;;12.20;99.90;;;;;;4854660;29;20569;-76
2023/01/01 04:18:09;;;;;;;6.07;3.45;;;12.30;99.90;;;;;;4855938;29;20042;-75
2023/01/01 04:20:35;;;;;;;9.80;3.78;;;12.30;99.90;;;;;;4846244;29;20078;-76
2023/01/01 04:23:01;;;;;;;12.90;4.43;;;12.30;99.90;;;;;;4858133;29;20104;-75
2023/01/01 04:25:28;;;;;;;6.82;3.25;;;12.30;99.90;;;;;;4851331;29;20095;-75
2023/01/01 04:27:54;;;;;;;10.40;3.35;;;12.30;99.90;;;;;;4871124;29;20041;-75
2023/01/01 04:30:20;;;;;;;11.82;4.63;;;12.30;99.90;;;;;;4852099;29;20440;-76
2023/01/01 04:32:46;;;;;;;11.00;3.20;;;12.20;99.90;;;;;;4855729;29;20506;-75
2023/01/01 04:35:13;;;;;;;7.20;3.67;;;12.20;99.90;;;;;;4852893;29;20049;-75
2023/01/01 04:37:41;;;;;;;8.27;3.40;;;12.10;99.90;;;;;;4854621;29;20040;-77
2023/01/01 04:40:09;;;;;;;7.43;3.45;;;12.00;99.90;;;;;;4865263;29;20037;-75
2023/01/01 04:42:35;;;;;;;9.88;3.95;;;12.00;99.90;;;;;;4868160;29;20036;-75
2023/01/01 04:45:00;;;;;;;8.95;3.95;;;12.00;99.90;;;;;;4865945;29;20033;-76
2023/01/01 04:47:26;;;;;;;14.48;4.32;;;12.00;99.90;;;;;;4852967;29;20402;-76
2023/01/01 04:49:53;;;;;;;12.75;4.35;;;12.00;99.90;;;;;;4866687;29;20455;-76
2023/01/01 04:52:19;;;;;;;9.88;2.92;;;12.00;99.90;;;;;;4866720;29;20080;-76
2023/01/01 04:54:44;;;;;;;10.98;3.58;;;12.00;99.90;;;;;;4851685;29;20068;-76
2023/01/01 04:57:10;;;;;;;7.45;3.13;;;12.00;99.90;;;;;;4851224;29;20117;-76
2023/01/01 04:59:36;;;;;;;6.72;2.65;;;12.00;99.90;;;;;;4855346;29;20819;-75
2023/01/01 05:02:02;;;;;;;11.25;3.55;;;12.00;99.90;;;;;;4865969;29;20069;-76
2023/01/01 05:04:27;;;;;;;7.47;3.08;;;12.00;99.90;;;;;;4866818;29;20104;-76
2023/01/01 05:06:53;;;;;;;8.00;3.72;;;12.00;99.90;;;;;;4850288;29;20044;-76
2023/01/01 05:09:19;;;;;;;8.77;3.88;;;12.00;99.90;;;;;;4867090;29;20041;-76
2023/01/01 05:11:44;;;;;;;10.57;3.97;;;12.00;99.90;;;;;;4851279;29;20037;-76
2023/01/01 05:14:10;;;;;;;8.73;3.10;;;11.90;99.90;;;;;;4854981;29;20060;-76
2023/01/01 05:16:38;;;;;;;6.72;2.65;;;11.90;99.90;;;;;;4852622;29;20121;-76
2023/01/01 05:19:05;;;;;;;8.77;2.88;;;11.90;99.90;;;;;;4853674;29;20042;-76
2023/01/01 05:21:37;;;;;;;9.90;3.50;;;11.80;99.90;;;;;;4865479;29;20017;-76
2023/01/01 05:24:07;;;;;;;4.85;2.78;;;11.70;99.90;;;;;;4866601;29;20062;-76
2023/01/01 05:26:36;;;;;;;8.95;4.10;;;11.70;99.90;;;;;;4864754;29;20034;-76
2023/01/01 05:29:02;;;;;;;7.85;3.10;;;11.60;99.90;;;;;;4866502;29;20425;-76
2023/01/01 05:31:32;;;;;;;9.50;3.90;;;11.60;99.90;;;;;;4851187;29;20029;-76
2023/01/01 05:33:58;;;;;;;7.82;3.38;;;11.50;99.90;;;;;;4866137;29;20034;-75
2023/01/01 05:36:27;;;;;;;8.10;2.53;;;11.40;99.90;;;;;;4864909;29;20033;-75
2023/01/01 05:38:54;;;;;;;22.83;3.80;;;11.40;99.90;;;;;;4851556;29;20094;-76
2023/01/01 05:41:21;;;;;;;6.20;2.88;;;11.40;99.90;;;;;;4841865;29;20029;-76
2023/01/01 05:43:47;;;;;;;5.53;2.72;;;11.40;99.90;;;;;;4861696;29;20509;-76
2023/01/01 05:46:20;;;;;;;10.65;2.88;;;11.50;99.90;;;;;;4848357;29;20033;-75
2023/01/01 05:48:46;;;;;;;7.55;3.15;;;11.50;99.90;;;;;;4868561;29;20136;-76
2023/01/01 05:51:20;;;;;;;8.60;3.03;;;11.50;99.90;;;;;;4848810;29;20106;-76
2023/01/01 05:53:46;;;;;;;8.32;3.05;;;11.60;99.90;;;;;;4853639;29;20049;-76
2023/01/01 05:56:13;;;;;;;5.85;2.72;;;11.60;99.90;;;;;;4848904;29;20132;-76
2023/01/01 05:58:40;;;;;;;4.60;2.13;;;11.60;99.90;;;;;;4858575;29;20041;-76
2023/01/01 06:01:24;;;;;;;7.00;3.10;;;11.60;99.90;;;;;;4855550;29;20040;-76
2023/01/01 06:03:52;;;;;;;6.50;2.70;;;11.50;99.90;;;;;;4866413;29;20073;-76
2023/01/01 06:06:22;;;;;;;4.75;2.20;;;11.50;99.90;;;;;;4856948;29;20034;-76
2023/01/01 06:08:53;;;;;;;5.53;2.78;;;11.70;99.90;;;;;;4854788;29;20045;-76
2023/01/01 06:11:20;;;;;;;4.10;2.38;;;11.70;99.90;;;;;;4841716;29;20685;-75
2023/01/01 06:13:46;;;;;;;4.53;2.00;;;11.70;99.90;;;;;;4854520;29;20092;-76
2023/01/01 06:16:12;;;;;;;7.57;2.58;;;11.70;99.90;;;;;;4866220;29;20042;-76
2023/01/01 06:18:38;;;;;;;7.43;2.80;;;11.70;99.90;;;;;;4866822;29;20166;-74
2023/01/01 06:21:20;;;;;;;5.15;2.13;;;11.80;99.90;;;;;;4847874;29;20116;-75
2023/01/01 06:23:46;;;;;;;4.38;2.15;;;12.00;99.90;;;;;;4868201;29;20029;-76
2023/01/01 06:26:14;;;;;;;4.30;1.40;;;12.20;99.90;;;;;;4851374;29;20049;-72
2023/01/01 06:28:41;;;;;;;3.53;1.45;;;12.40;99.90;;;;;;4862481;29;20048;-72
2023/01/01 06:31:10;;;;;;;3.72;1.65;;;12.50;99.90;;;;;;4859515;29;20165;-78
2023/01/01 06:33:37;;;;;;;3.47;2.30;;;12.70;99.90;;;;;;4871025;29;20048;-79
2023/01/01 06:36:06;;;;;;;4.53;1.73;;;12.80;99.90;;;;;;4862742;29;20104;-76
2023/01/01 06:38:39;;;;;;;3.70;1.85;;;12.90;99.90;;;;;;4856227;29;20052;-73
2023/01/01 06:41:18;;;;;;;5.40;1.40;;;13.00;99.90;;;;;;4848652;29;20041;-80
2023/01/01 06:43:45;;;;;;;3.72;1.77;;;13.00;99.90;;;;;;4861539;29;20034;-81
2023/01/01 06:46:15;;;;;;;3.92;1.70;;;13.00;99.90;;;;;;4850131;29;20057;-79
2023/01/01 06:48:42;;;;;;;3.40;1.55;;;13.00;99.90;;;;;;4871826;29;20026;-81
2023/01/01 06:51:11;;;;;;;7.05;1.75;;;12.90;99.90;;;;;;4852722;29;20033;-78
2023/01/01 06:53:38;;;;;;;16.02;1.73;;;12.90;99.90;;;;;;4855864;29;20496;-78
2023/01/01 06:56:05;;;;;;;3.05;1.35;;;12.90;99.90;;;;;;4853637;29;20033;-76
2023/01/01 06:58:31;;;;;;;3.13;1.38;;;12.90;99.90;;;;;;4862422;29;20046;-79
2023/01/01 07:01:27;;;;;;;4.30;1.20;;;12.90;99.90;;;;;;4854054;29;20042;-76
2023/01/01 07:04:04;;;;;;;4.68;2.00;;;13.00;99.90;;;;;;4857497;29;20033;-79
2023/01/01 07:06:31;;;;;;;2.88;1.58;;;12.90;99.90;;;;;;4850625;29;20045;-77
2023/01/01 07:08:57;;;;;;;2.15;1.08;;;12.90;99.90;;;;;;4873035;29;20040;-78
2023/01/01 07:11:24;;;;;;;2.72;1.45;;;13.00;99.90;;;;;;4851211;29;20034;-77
2023/01/01 07:13:49;;;;;;;5.13;1.10;;;13.00;99.90;;;;;;4871526;23;20033;-74
2023/01/01 07:16:15;;;;;;;2.33;0.93;;;13.00;99.90;;;;;;4824865;29;20038;-74
2023/01/01 07:18:41;;;;;;;5.85;1.77;;;13.00;99.90;;;;;;4856646;29;20033;-74
2023/01/01 07:21:28;;;;;;;3.50;1.40;;;12.90;99.90;;;;;;4852248;29;20042;-73
2023/01/01 07:23:57;;;;;;;4.38;1.58;;;12.90;99.90;;;;;;4873008;29;20032;-73
2023/01/01 07:26:24;;;;;;;3.28;1.35;;;12.90;99.90;;;;;;4849155;29;20124;-73
2023/01/01 07:28:51;;;;;;;4.28;1.42;;;12.90;99.90;;;;;;4842359;29;20494;-73
2023/01/01 07:31:16;;;;;;;1.85;1.08;;;12.90;99.90;;;;;;4849899;29;20522;-74
2023/01/01 07:33:42;;;;;;;2.13;1.13;;;12.90;99.90;;;;;;4870539;29;20033;-80
2023/01/01 07:36:08;;;;;;;3.85;1.45;;;12.80;99.90;;;;;;4850820;29;20048;-80
2023/01/01 07:38:34;;;;;;;3.35;1.30;;;12.70;99.90;;;;;;4851771;29;20038;-81
2023/01/01 07:40:59;;;;;;;3.25;1.38;;;12.50;99.90;;;;;;4850709;29;20038;-78
2023/01/01 07:43:25;;;;;;;6.28;2.00;;;12.40;99.90;;;;;;4860735;29;20065;-80
2023/01/01 07:45:51;;;;;;;3.60;2.05;;;12.40;99.90;;;;;;4846698;29;20066;-80
2023/01/01 07:48:16;;;;;;;7.03;1.45;;;12.40;99.90;;;;;;4860637;29;20033;-79
2023/01/01 07:50:42;;;;;;;4.35;1.75;;;12.30;99.90;;;;;;4847409;29;20049;-77
2023/01/01 07:53:08;;;;;;;6.60;1.88;;;12.40;99.90;;;;;;4859693;29;20472;-78
2023/01/01 07:55:34;;;;;;;7.13;1.85;;;12.40;99.90;;;;;;4858141;29;21016;-76
2023/01/01 07:58:01;;;;;;;2.67;1.20;;;12.50;99.90;;;;;;4852642;29;20045;-77
2023/01/01 08:00:27;;;;;;;3.30;1.00;;;12.50;99.90;;;;;;4839968;29;20037;-78
2023/01/01 08:02:52;;;;;;;2.95;1.05;;;12.50;99.90;;;;;;4852153;29;20033;-77
2023/01/01 08:05:18;;;;;;;4.45;1.63;;;12.60;99.90;;;;;;4849511;29;20029;-78
2023/01/01 08:07:49;;;;;;;6.57;2.13;;;12.70;99.90;;;;;;4852183;29;20509;-78
2023/01/01 08:10:18;;;;;;;6.72;1.15;;;12.70;99.90;;;;;;4857117;29;20081;-78
2023/01/01 08:12:44;;;;;;;3.38;1.77;;;12.80;99.90;;;;;;4866527;29;20034;-77
2023/01/01 08:15:11;;;;;;;6.18;1.52;;;12.90;99.90;;;;;;4870717;29;20041;-79
2023/01/01 08:17:37;;;;;;;2.53;1.63;;;13.00;99.90;;;;;;4867017;29;20053;-77
2023/01/01 08:20:04;;;;;;;6.13;1.65;;;13.00;99.90;;;;;;4870828;29;20033;-76
2023/01/01 08:22:30;;;;;;;2.15;1.17;;;13.10;99.90;;;;;;4852671;29;20575;-77
2023/01/01 08:24:56;;;;;;;5.60;1.48;;;13.10;99.90;;;;;;4856477;29;20070;-79
2023/01/01 08:27:21;;;;;;;3.33;1.33;;;13.30;99.90;;;;;;4851063;29;20406;-78
2023/01/01 08:29:47;;;;;;;2.45;0.90;;;13.40;99.90;;;;;;4834987;29;20136;-78
2023/01/01 08:32:13;;;;;;;2.35;1.30;;;13.50;99.90;;;;;;4858495;29;20037;-79
2023/01/01 08:34:39;;;;;;;1.05;0.63;;;13.60;99.90;;;;;;4856808;29;20048;-78
2023/01/01 08:37:05;;;;;;;3.13;1.30;;;13.70;99.90;;;;;;4846629;29;20038;-78
2023/01/01 08:39:31;;;;;;;3.50;2.05;;;13.60;99.90;;;;;;4836538;29;20026;-78
2023/01/01 08:41:57;;;;;;;2.60;1.33;;;13.20;99.90;;;;;;4837166;29;20394;-77
2023/01/01 08:44:22;;;;;;;8.43;2.88;;;12.70;99.90;;;;;;4838326;29;20160;-78
2023/01/01 08:46:51;;;;;;;4.13;1.65;;;12.50;99.90;;;;;;4836121;29;20157;-77
2023/01/01 08:49:16;;;;;;;2.42;0.93;;;12.30;99.90;;;;;;4838316;29;20367;-77
2023/01/01 08:51:42;;;;;;;3.35;1.65;;;12.20;99.90;;;;;;4849039;29;20046;-78
2023/01/01 08:54:08;;;;;;;2.72;0.95;;;12.20;99.90;;;;;;4855519;29;20037;-78
2023/01/01 08:56:33;;;;;;;4.60;1.65;;;12.30;99.90;;;;;;4865662;29;20041;-79
2023/01/01 08:59:00;;;;;;;2.88;1.38;;;12.40;99.90;;;;;;4855656;29;20030;-75
2023/01/01 09:01:26;;;;;;;3.60;1.75;;;12.50;99.90;;;;;;4855167;29;20057;-79
2023/01/01 09:03:52;;;;;;;3.03;1.60;;;12.70;99.90;;;;;;4841891;29;20029;-80
2023/01/01 09:06:18;;;;;;;4.03;1.58;;;12.90;99.90;;;;;;4846904;29;20037;-80
2023/01/01 09:08:44;;;;;;;0.98;0.77;;;13.30;99.90;;;;;;4853396;29;20036;-80
2023/01/01 09:11:27;;;;;;;2.53;1.55;;;13.80;99.90;;;;;;4837437;29;20765;-78
2023/01/01 09:13:54;;;;;;;2.28;1.13;;;14.20;99.90;;;;;;4856285;29;20037;-79
2023/01/01 09:16:21;;;;;;;2.65;0.95;;;14.40;99.90;;;;;;4851274;29;20080;-80
2023/01/01 09:18:48;;;;;;;4.47;1.38;;;14.50;99.90;;;;;;4856708;29;20037;-80
2023/01/01 09:21:13;;;;;;;1.42;0.50;;;14.70;99.90;;;;;;4848467;29;20066;-81
2023/01/01 09:23:40;;;;;;;3.22;1.13;;;14.70;99.90;;;;;;4840058;29;20038;-75
2023/01/01 09:26:08;;;;;;;4.00;1.50;;;14.80;99.90;;;;;;4863786;29;20033;-74
2023/01/01 09:28:36;;;;;;;2.60;1.17;;;14.90;99.90;;;;;;4872304;29;20044;-76
2023/01/01 09:31:05;;;;;;;6.20;1.08;;;15.00;99.90;;;;;;4845975;29;20033;-81
2023/01/01 09:33:32;;;;;;;3.05;1.10;;;15.10;99.90;;;;;;4839342;29;20050;-80
2023/01/01 09:36:28;;;;;;;4.30;1.80;;;15.20;99.90;;;;;;4853948;29;20045;-81
2023/01/01 09:38:56;;;;;;;2.10;0.98;;;15.20;99.90;;;;;;4853103;29;20077;-80
2023/01/01 09:41:38;;;;;;;3.58;1.20;;;15.30;99.90;;;;;;4850937;29;20025;-81
2023/01/01 09:44:18;;;;;;;3.50;1.15;;;15.50;99.90;;;;;;4869575;29;20061;-74
2023/01/01 09:46:44;;;;;;;7.55;0.98;;;15.60;99.90;;;;;;4864564;29;20066;-80
2023/01/01 09:49:43;;;;;;;3.90;1.08;;;15.80;99.90;;;;;;4855858;29;20037;-72
2023/01/01 09:52:13;;;;;;;1.80;0.65;;;15.90;99.90;;;;;;4840583;29;20376;-75
2023/01/01 09:54:47;;;;;;;1.75;0.95;;;16.00;99.90;;;;;;4852350;29;20550;-72
2023/01/01 09:57:13;;;;;;;2.83;1.50;;;16.00;99.90;;;;;;4857052;29;20045;-78
2023/01/01 09:59:39;;;;;;;2.85;1.48;;;16.10;99.90;;;;;;4867964;29;20037;-76
2023/01/01 10:02:28;;;;;;;3.83;1.10;;;16.40;99.90;;;;;;4847828;29;20076;-79
2023/01/01 10:05:31;;;;;;;2.53;1.00;;;16.70;99.90;;;;;;4845627;29;20037;-76
2023/01/01 10:08:12;;;;;;;4.78;1.05;;;16.80;99.90;;;;;;4855775;29;20101;-75
2023/01/01 10:10:50;;;;;;;3.67;2.17;;;16.70;99.90;;;;;;4862572;29;20030;-78
2023/01/01 10:13:32;;;;;;;6.63;0.85;;;16.50;99.90;;;;;;4836773;29;20098;-77
2023/01/01 10:16:20;;;;;;;2.55;0.85;;;16.70;99.90;;;;;;4856379;29;20453;-77
2023/01/01 10:18:53;;;;;;;1.98;1.20;;;16.80;99.90;;;;;;4839823;29;20410;-79
2023/01/01 10:21:36;;;;;;;3.15;1.08;;;17.00;99.90;;;;;;4854348;29;20060;-78
2023/01/01 10:24:18;;;;;;;2.97;0.85;;;16.80;99.90;;;;;;4854654;29;20069;-77
2023/01/01 10:26:45;;;;;;;3.08;1.05;;;17.10;99.90;;;;;;4863203;29;20036;-78
2023/01/01 10:29:18;;;;;;;3.22;1.20;;;17.10;99.90;;;;;;4869352;29;20410;-76
2023/01/01 10:31:47;;;;;;;5.55;1.63;;;16.80;99.90;;;;;;4851995;29;20049;-77
2023/01/01 10:34:19;;;;;;;4.53;1.38;;;17.00;99.90;;;;;;4828407;29;20033;-77
2023/01/01 10:36:45;;;;;;;2.05;0.65;;;17.10;99.90;;;;;;4831769;29;20046;-77
2023/01/01 10:39:18;;;;;;;1.88;0.90;;;16.90;99.90;;;;;;4855061;29;20030;-77
2023/01/01 10:41:44;;;;;;;2.45;0.75;;;17.10;99.90;;;;;;4845319;29;20038;-77
2023/01/01 10:44:12;;;;;;;1.38;0.80;;;17.20;99.90;;;;;;4856689;29;20387;-74
2023/01/01 10:46:47;;;;;;;2.75;1.23;;;17.20;99.90;;;;;;4863733;29;20034;-77
2023/01/01 10:49:15;;;;;;;2.35;1.05;;;17.10;99.90;;;;;;4850133;29;20041;-77
2023/01/01 10:51:48;;;;;;;1.90;0.82;;;17.00;99.90;;;;;;4864637;29;20491;-77
2023/01/01 10:54:34;;;;;;;3.67;0.82;;;17.50;99.90;;;;;;4850493;29;20045;-74
2023/01/01 10:57:29;;;;;;;4.47;0.93;;;17.90;99.90;;;;;;4860041;29;20126;-77
2023/01/01 11:00:11;;;;;;;4.15;1.23;;;18.10;99.90;;;;;;4868244;29;20587;-80
2023/01/01 11:02:37;;;;;;;3.03;1.33;;;17.80;99.90;;;;;;4833038;29;20034;-78
2023/01/01 11:05:18;;;;;;;2.78;1.10;;;17.70;99.90;;;;;;4870650;29;20025;-75
2023/01/01 11:07:45;;;;;;;6.10;1.70;;;17.90;99.90;;;;;;4842730;29;20038;-80
2023/01/01 11:10:19;;;;;;;2.72;0.80;;;17.90;99.90;;;;;;4869162;29;20037;-74
2023/01/01 11:12:46;;;;;;;2.28;1.05;;;17.60;99.90;;;;;;4864097;29;20060;-75
2023/01/01 11:15:41;;;;;;;3.95;1.23;;;17.50;99.90;;;;;;4872228;29;20108;-72
2023/01/01 11:18:34;;;;;;;7.35;1.13;;;17.20;99.90;;;;;;4866170;29;20049;-72
2023/01/01 11:21:04;;;;;;;2.47;1.40;;;17.10;99.90;;;;;;4841294;29;20101;-75
2023/01/01 11:23:38;;;;;;;3.80;0.93;;;16.90;99.90;;;;;;4859090;29;20038;-75
2023/01/01 11:26:12;;;;;;;5.05;1.10;;;16.80;99.90;;;;;;4856308;29;20023;-75
2023/01/01 11:28:39;;;;;;;5.35;1.08;;;16.70;99.90;;;;;;4850927;29;20033;-73
2023/01/01 11:31:18;;;;;;;1.55;0.80;;;16.60;99.90;;;;;;4862481;29;20046;-75
2023/01/01 11:33:46;;;;;;;2.58;0.88;;;16.50;99.90;;;;;;4865336;29;20085;-75
2023/01/01 11:36:28;;;;;;;3.78;0.98;;;16.50;99.90;;;;;;4840951;29;20048;-77
2023/01/01 11:39:26;;;;;;;1.83;0.70;;;16.40;99.90;;;;;;4861986;29;20038;-78
2023/01/01 11:41:55;;;;;;;2.70;0.93;;;16.40;99.90;;;;;;4849292;29;20045;-78
2023/01/01 11:44:36;;;;;;;2.60;0.82;;;16.30;99.90;;;;;;4852293;29;20037;-80
2023/01/01 11:47:05;;;;;;;6.43;1.17;;;16.20;99.90;;;;;;4851931;29;20057;-80
2023/01/01 11:49:31;;;;;;;2.45;1.00;;;16.20;99.90;;;;;;4855085;29;20423;-80
2023/01/01 11:51:58;;;;;;;2.40;0.80;;;16.20;99.90;;;;;;4845939;29;20080;-79
2023/01/01 11:54:36;;;;;;;3.10;0.80;;;16.10;99.90;;;;;;4864999;29;20037;-79
2023/01/01 11:57:24;;;;;;;7.45;1.75;;;16.00;99.90;;;;;;4854009;29;20077;-77
2023/01/01 11:59:59;;;;;;;1.77;1.08;;;16.10;99.90;;;;;;4855225;29;20094;-77
2023/01/01 12:02:46;;;;;;;3.10;1.48;;;16.10;99.90;;;;;;4862622;29;20038;-82
2023/01/01 12:05:47;;;;;;;11.35;3.42;;;16.20;99.90;;;;;;4869356;29;20037;-78
2023/01/01 12:08:47;;;;;;;3.33;1.00;;;16.10;99.90;;;;;;4864137;29;20409;-76
2023/01/01 12:11:31;;;;;;;3.65;1.25;;;16.20;99.90;;;;;;4847833;29;20033;-75
2023/01/01 12:14:41;;;;;;;4.53;1.23;;;16.10;99.90;;;;;;4842798;29;20165;-75
2023/01/01 12:17:34;;;;;;;8.73;1.33;;;16.00;99.90;;;;;;4845274;29;20133;-78
2023/01/01 12:20:24;;;;;;;3.58;1.83;;;16.00;99.90;;;;;;4863898;29;20045;-77
2023/01/01 12:22:50;;;;;;;2.72;1.15;;;15.90;99.90;;;;;;4857262;29;20034;-76
2023/01/01 12:25:19;;;;;;;5.65;1.10;;;15.90;99.90;;;;;;4863020;29;20033;-78
2023/01/01 12:28:08;;;;;;;4.28;1.67;;;15.90;99.90;;;;;;4854673;29;20121;-78
2023/01/01 12:31:06;;;;;;;8.73;1.77;;;15.80;99.90;;;;;;4840022;29;20482;-81
2023/01/01 12:34:04;;;;;;;2.38;1.13;;;15.80;99.90;;;;;;4839291;29;20128;-79
2023/01/01 12:37:09;;;;;;;1.52;1.00;;;15.80;99.90;;;;;;4844713;29;20038;-79
2023/01/01 12:40:26;;;;;;;4.22;1.60;;;15.90;99.90;;;;;;4841008;29;20034;-77
2023/01/01 12:42:52;;;;;;;2.33;1.10;;;15.80;99.90;;;;;;4829249;29;20048;-76
2023/01/01 12:46:12;;;;;;;1.52;1.10;;;15.70;99.90;;;;;;4850624;29;20029;-77
2023/01/01 12:49:14;;;;;;;1.90;0.90;;;15.80;99.90;;;;;;4846323;29;20116;-77
2023/01/01 12:51:52;;;;;;;1.83;0.77;;;15.80;99.90;;;;;;4863793;29;20061;-76
2023/01/01 12:54:47;;;;;;;2.40;1.15;;;15.80;99.90;;;;;;4853309;29;20060;-76
2023/01/01 12:57:34;;;;;;;4.40;1.73;;;15.80;99.90;;;;;;4860659;29;20061;-76
2023/01/01 13:00:10;;;;;;;4.22;1.13;;;15.70;99.90;;;;;;4846703;29;20072;-76
2023/01/01 13:02:40;;;;;;;2.60;1.23;;;15.70;99.90;;;;;;4838728;29;20042;-76
2023/01/01 13:05:19;;;;;;;7.13;1.37;;;15.70;99.90;;;;;;4870642;29;20049;-77
2023/01/01 13:07:53;;;;;;;2.97;0.98;;;15.70;99.90;;;;;;4867170;29;20053;-76
2023/01/01 13:10:28;;;;;;;5.05;0.93;;;15.70;99.90;;;;;;4847817;29;20052;-76
2023/01/01 13:12:55;;;;;;;4.45;1.38;;;15.70;99.90;;;;;;4855014;29;20042;-76
2023/01/01 13:15:43;;;;;;;2.03;0.90;;;15.70;99.90;;;;;;4856161;23;20403;-72
2023/01/01 13:18:14;;;;;;;2.47;1.05;;;15.60;99.90;;;;;;4833772;29;20410;-72
2023/01/01 13:20:58;;;;;;;4.65;1.83;;;15.60;99.90;;;;;;4829982;29;20037;-72
2023/01/01 13:23:30;;;;;;;1.73;0.85;;;15.70;99.90;;;;;;4818604;29;20580;-73